Time;durP1;ratioP1;P1;durP2;ratioP2;P2;SDS_P1;SDS_P2;PMS_P1;PMS_P2;Temp;Humidity;BMP_temperature;BMP_pressure;BME280_temperature;BME280_humidity;BME280_pressure;Samples;Min_cycle;Max_cycle;Signal;HPM_P1;HPM_P2
2023/02/21 02:16:22;;;;;;;41.27;21.90;;;;;;;9.67;100.00;149897.06;5022092;28;21243;-64
2023/02/21 02:18:56;;;;;;;40.53;20.13;;;;;;;9.65;100.00;149890.59;5006681;28;20493;-66
2023/02/21 02:22:00;;;;;;;45.10;23.00;;;;;;;9.60;100.00;149878.97;5009996;28;20551;-65
2023/02/21 02:24:40;;;;;;;49.07;25.17;;;;;;;9.61;100.00;149880.25;5005538;28;20045;-67
2023/02/21 02:27:17;;;;;;;34.10;16.70;;;;;;;-145.18;100.00;60484.78;5011991;28;20052;-65
2023/02/21 02:29:43;;;;;;;44.90;21.20;;;;;;;9.74;100.00;149912.63;5011662;28;20181;-65
2023/02/21 02:32:33;;;;;;;43.37;22.07;;;;;;;9.67;100.00;149895.78;5008808;28;20219;-65
2023/02/21 02:34:58;;;;;;;48.70;23.57;;;;;;;9.66;100.00;149894.47;5003729;28;20056;-66
2023/02/21 02:37:45;;;;;;;43.63;23.17;;;;;;;9.59;100.00;149875.09;5010857;28;20030;-65
2023/02/21 02:40:34;;;;;;;48.70;21.87;;;;;;;9.55;100.00;149866.00;5011424;28;20049;-65
2023/02/21 02:43:21;;;;;;;46.57;23.73;;;;;;;9.59;100.00;149875.09;5008742;28;20029;-63
2023/02/21 02:45:55;;;;;;;45.90;23.00;;;;;;;9.51;100.00;149855.66;5011083;28;20025;-63
2023/02/21 02:48:33;;;;;;;41.60;19.73;;;;;;;9.48;100.00;149847.91;5011235;28;20718;-63
2023/02/21 02:51:02;;;;;;;52.60;25.50;;;;;;;9.54;100.00;149863.41;5011976;28;20489;-63
2023/02/21 02:53:29;;;;;;;53.37;25.77;;;;;;;9.57;100.00;149869.88;5010980;28;20025;-64
2023/02/21 02:56:04;;;;;;;48.97;22.27;;;;;;;9.53;100.00;149859.53;5010871;28;20033;-63
2023/02/21 02:58:40;;;;;;;51.50;24.57;;;;;;;9.57;100.00;149871.22;5009242;28;20539;-64
2023/02/21 03:01:06;;;;;;;52.17;25.83;;;;;;;9.47;100.00;149844.03;5009441;28;20057;-63
2023/02/21 03:03:54;;;;;;;37.73;18.07;;;;;;;9.40;100.00;149827.19;5008192;28;20455;-64
2023/02/21 03:06:37;;;;;;;57.13;26.20;;;;;;;9.33;100.00;149809.09;5008564;28;20061;-64
2023/02/21 03:09:21;;;;;;;57.80;29.03;;;;;;;9.24;100.00;149787.09;5010139;28;20045;-63
2023/02/21 03:12:09;;;;;;;54.47;26.43;;;;;;;9.15;100.00;149762.50;5009673;28;20115;-63
2023/02/21 03:14:44;;;;;;;59.50;27.67;;;;;;;9.11;100.00;149753.47;5010300;28;20462;-63
2023/02/21 03:17:15;;;;;;;68.47;31.53;;;;;;;9.10;100.00;149750.88;5001231;28;20148;-63
2023/02/21 03:19:45;;;;;;;72.27;26.83;;;;;;;9.03;100.00;149732.75;5006992;28;20466;-63
2023/02/21 03:22:14;;;;;;;71.60;30.57;;;;;;;8.99;100.00;149723.72;5009918;28;20022;-67
2023/02/21 03:24:43;;;;;;;71.87;28.00;;;;;;;8.98;100.00;149721.13;5009785;28;20549;-66
2023/02/21 03:27:10;;;;;;;76.70;31.93;;;;;;;8.99;100.00;149722.41;5009713;28;20029;-67
2023/02/21 03:29:37;;;;;;;62.87;24.47;;;;;;;9.02;100.00;149730.16;5007851;28;20117;-66
2023/02/21 03:34:39;;;;;;;63.37;26.20;;;;;;;8.98;100.00;149719.84;5012793;28;20361;-66
2023/02/21 03:37:17;;;;;;;74.90;29.67;;;;;;;9.01;100.00;79702.28;5013413;28;20038;-67
2023/02/21 03:39:42;;;;;;;75.40;31.77;;;;;;;9.00;100.00;149725.00;5012914;28;20037;-66
2023/02/21 03:42:08;;;;;;;68.27;29.40;;;;;;;9.02;100.00;149730.16;5012626;28;20373;-66
2023/02/21 03:44:33;;;;;;;81.23;31.37;;;;;;;8.99;100.00;149722.41;5014047;28;20026;-66
2023/02/21 03:46:58;;;;;;;70.50;26.40;;;;;;;8.97;100.00;149717.25;5011872;28;20397;-66
2023/02/21 03:49:24;;;;;;;59.70;24.57;;;;;;;9.00;100.00;149726.28;5011592;28;20131;-66
2023/02/21 03:51:49;;;;;;;69.23;28.57;;;;;;;8.95;100.00;149713.34;5012917;28;20033;-62
2023/02/21 03:54:15;;;;;;;72.93;28.93;;;;;;;8.99;100.00;149722.41;5013135;28;20033;-62
2023/02/21 03:56:40;;;;;;;66.80;26.20;;;;;;;9.01;100.00;149727.59;5013483;28;20369;-62
2023/02/21 03:59:05;;;;;;;71.90;29.10;;;;;;;9.00;100.00;149725.00;5013397;28;20428;-64
2023/02/21 04:01:31;;;;;;;69.17;26.63;;;;;;;8.98;100.00;149719.84;5012947;28;20025;-62
2023/02/21 04:03:56;;;;;;;71.13;26.73;;;;;;;8.98;100.00;149719.84;5009139;28;20432;-63
2023/02/21 04:06:21;;;;;;;70.67;28.00;;;;;;;9.00;100.00;149725.00;5012182;28;20101;-64
2023/02/21 04:08:47;;;;;;;72.17;30.47;;;;;;;8.97;100.00;149717.25;5012064;28;20080;-65
2023/02/21 04:11:17;;;;;;;78.10;28.87;;;;;;;8.95;100.00;149712.03;5011980;28;20034;-65
2023/02/21 04:13:42;;;;;;;56.70;23.83;;;;;;;8.93;100.00;149708.16;5013141;28;20057;-65
2023/02/21 04:16:07;;;;;;;75.73;28.70;;;;;;;8.94;100.00;149710.75;5012562;28;20029;-65
2023/02/21 04:18:33;;;;;;;79.63;30.07;;;;;;;8.94;100.00;149710.75;5012558;28;20017;-63
2023/02/21 04:20:58;;;;;;;71.37;26.00;;;;;;;8.93;100.00;149706.88;5013123;28;20033;-63
2023/02/21 04:23:23;;;;;;;75.03;28.63;;;;;;;8.93;100.00;149706.88;5014550;28;20536;-63
2023/02/21 04:25:49;;;;;;;61.27;23.60;;;;;;;8.93;100.00;149706.88;5013995;28;20025;-62
2023/02/21 04:28:14;;;;;;;76.03;28.63;;;;;;;8.96;100.00;149714.63;5012937;28;20615;-63
2023/02/21 04:30:40;;;;;;;76.87;29.77;;;;;;;8.95;100.00;149713.34;5013283;28;20026;-63
2023/02/21 04:33:05;;;;;;;70.63;27.73;;;;;;;8.93;100.00;149706.88;5012278;28;20045;-62
2023/02/21 04:35:30;;;;;;;74.00;26.97;;;;;;;8.95;100.00;149712.03;4999975;28;20085;-63
2023/02/21 04:37:56;;;;;;;64.87;25.77;;;;;;;8.95;100.00;149712.03;5013762;28;20030;-63
2023/02/21 04:40:21;;;;;;;74.43;29.30;;;;;;;8.99;100.00;149722.41;5012824;28;20060;-63
2023/02/21 04:42:47;;;;;;;77.73;27.87;;;;;;;8.97;100.00;149718.56;5013181;28;20096;-63
2023/02/21 04:45:12;;;;;;;59.93;22.50;;;;;;;9.02;100.00;149730.16;5012709;28;20033;-63
2023/02/21 04:47:38;;;;;;;50.60;20.47;;;;;;;9.06;100.00;149740.50;5012017;28;20075;-64
2023/02/21 04:50:04;;;;;;;65.87;24.83;;;;;;;9.05;100.00;149737.91;5012969;28;20083;-64
2023/02/21 04:52:29;;;;;;;50.87;20.00;;;;;;;9.05;100.00;149739.22;5012217;28;20116;-63
2023/02/21 04:54:55;;;;;;;58.10;22.13;;;;;;;9.04;100.00;149736.63;5006651;28;20030;-64
2023/02/21 04:57:20;;;;;;;69.73;24.87;;;;;;;9.05;100.00;149739.22;5012119;28;20397;-62
2023/02/21 04:59:46;;;;;;;66.40;26.40;;;;;;;9.06;100.00;149740.50;5013018;28;20029;-62
2023/02/21 05:02:11;;;;;;;56.27;22.60;;;;;;;9.06;100.00;149740.50;5010966;28;20064;-63
2023/02/21 05:04:37;;;;;;;56.20;22.60;;;;;;;9.08;100.00;149745.66;5009238;28;20388;-62
2023/02/21 05:07:03;;;;;;;68.13;26.47;;;;;;;9.10;100.00;149750.88;5011600;28;20452;-63
2023/02/21 05:09:29;;;;;;;69.67;26.57;;;;;;;9.11;100.00;149753.47;5012653;28;20553;-62
2023/02/21 05:11:54;;;;;;;77.83;29.50;;;;;;;9.13;100.00;149758.63;5011449;28;20030;-63
2023/02/21 05:14:20;;;;;;;73.80;28.27;;;;;;;9.14;100.00;149761.22;5011521;28;20472;-63
2023/02/21 05:16:45;;;;;;;62.40;24.83;;;;;;;9.14;100.00;149759.94;5011090;28;20141;-62
2023/02/21 05:19:11;;;;;;;69.43;27.73;;;;;;;9.12;100.00;149756.06;5011221;28;20021;-63
2023/02/21 05:21:37;;;;;;;77.50;28.13;;;;;;;9.13;100.00;149758.63;5008291;28;20572;-62
2023/02/21 05:24:07;;;;;;;51.50;21.27;;;;;;;9.12;100.00;149756.06;5011001;28;20070;-62
2023/02/21 05:26:35;;;;;;;64.77;27.43;;;;;;;9.12;100.00;149756.06;5011183;28;20037;-62
2023/02/21 05:29:02;;;;;;;77.43;30.87;;;;;;;9.13;100.00;149757.34;5011401;28;20121;-62
2023/02/21 05:31:27;;;;;;;64.93;26.23;;;;;;;9.12;100.00;149754.75;5010925;28;20026;-63
2023/02/21 05:33:53;;;;;;;69.30;26.57;;;;;;;9.12;100.00;149756.06;5010209;28;20024;-63
2023/02/21 05:36:19;;;;;;;51.77;21.30;;;;;;;9.11;100.00;149753.47;5010860;28;20492;-62
2023/02/21 05:38:49;;;;;;;60.33;24.80;;;;;;;9.12;100.00;149754.75;5011698;28;20421;-62
2023/02/21 05:41:16;;;;;;;80.28;30.67;;;;;;;9.13;100.00;149758.63;5011045;28;20248;-63
2023/02/21 05:43:46;;;;;;;83.33;30.30;;;;;;;9.14;100.00;149761.22;5011302;28;20532;-62
2023/02/21 05:46:17;;;;;;;67.27;26.90;;;;;;;9.14;100.00;149759.94;5009874;28;20054;-63
2023/02/21 05:48:42;;;;;;;50.35;21.25;;;;;;;9.20;100.00;149776.72;5010022;28;20033;-62
2023/02/21 05:51:08;;;;;;;68.37;26.90;;;;;;;9.19;100.00;149774.13;5009789;28;20033;-63
2023/02/21 05:53:33;;;;;;;66.30;25.80;;;;;;;9.19;100.00;149774.13;5012585;28;20057;-63
2023/02/21 05:55:59;;;;;;;52.67;20.37;;;;;;;9.25;100.00;149788.38;5009112;28;20535;-63
2023/02/21 05:58:24;;;;;;;51.40;21.07;;;;;;;9.27;100.00;149793.56;5010897;28;20064;-62
2023/02/21 06:00:50;;;;;;;59.03;25.87;;;;;;;9.29;100.00;149800.00;5009721;28;20478;-64
2023/02/21 06:03:15;;;;;;;53.60;25.93;;;;;;;9.28;100.00;149796.13;5010245;28;20060;-62
2023/02/21 06:05:41;;;;;;;47.27;21.87;;;;;;;9.31;100.00;149803.88;5008771;28;20036;-62
2023/02/21 06:08:06;;;;;;;54.77;24.57;;;;;;;9.34;100.00;149811.69;5009717;28;20078;-62
2023/02/21 06:10:31;;;;;;;53.07;21.97;;;;;;;9.30;100.00;149801.31;5010748;28;20049;-62
2023/02/21 06:12:57;;;;;;;60.93;27.33;;;;;;;9.30;100.00;149802.59;5009432;28;20446;-62
2023/02/21 06:15:22;;;;;;;48.97;24.47;;;;;;;9.29;100.00;149800.00;5011575;28;20022;-62
2023/02/21 06:17:47;;;;;;;57.83;25.07;;;;;;;9.31;100.00;149805.19;5010765;28;20025;-62
2023/02/21 06:20:15;;;;;;;59.87;27.30;;;;;;;9.30;100.00;149802.59;5008939;28;20037;-62
2023/02/21 06:22:41;;;;;;;60.53;26.23;;;;;;;9.28;100.00;149796.13;4995189;28;20057;-63
2023/02/21 06:25:07;;;;;;;43.23;18.93;;;;;;;9.30;100.00;149801.31;4996097;28;20022;-62
2023/02/21 06:27:32;;;;;;;42.43;20.10;;;;;;;9.34;100.00;149812.97;5012070;28;20033;-62
2023/02/21 06:29:59;;;;;;;46.00;20.67;;;;;;;9.37;100.00;149820.72;5011522;28;20040;-63
2023/02/21 06:32:24;;;;;;;37.97;17.97;;;;;;;9.34;100.00;149812.97;5010651;28;20034;-62
2023/02/21 06:34:49;;;;;;;48.80;22.07;;;;;;;9.37;100.00;149820.72;5011099;28;20034;-62
2023/02/21 06:37:17;;;;;;;52.73;23.57;;;;;;;9.37;100.00;149820.72;5012124;28;20036;-62
2023/02/21 06:39:42;;;;;;;54.73;25.03;;;;;;;9.36;100.00;149818.16;5010178;28;20029;-63
2023/02/21 06:42:12;;;;;;;56.50;26.77;;;;;;;9.40;100.00;149827.19;5011842;28;20037;-62
2023/02/21 06:44:37;;;;;;;45.30;22.37;;;;;;;9.40;100.00;149828.47;5012134;28;20535;-62
2023/02/21 06:47:03;;;;;;;44.17;21.80;;;;;;;9.39;100.00;149825.91;5011132;28;20029;-62
2023/02/21 06:49:28;;;;;;;51.20;24.03;;;;;;;9.40;100.00;149828.47;5010123;28;20026;-62
2023/02/21 06:51:54;;;;;;;40.17;17.53;;;;;;;9.39;100.00;149825.91;5011645;28;20030;-62
2023/02/21 06:54:19;;;;;;;49.77;23.30;;;;;;;9.40;100.00;149828.47;5011818;28;20548;-62
2023/02/21 06:56:44;;;;;;;50.33;24.13;;;;;;;9.39;100.00;149824.59;5010758;28;20049;-61
2023/02/21 06:59:10;;;;;;;38.10;17.40;;;;;;;9.44;100.00;149836.22;5007321;28;20555;-62
2023/02/21 07:01:35;;;;;;;35.63;15.47;;;;;;;9.46;100.00;149841.44;5011013;28;20034;-62
2023/02/21 07:04:00;;;;;;;47.30;20.90;;;;;;;9.48;100.00;149846.63;5007058;28;20371;-63
2023/02/21 07:06:27;;;;;;;44.47;19.20;;;;;;;9.51;100.00;149854.38;5010864;28;20026;-62
2023/02/21 07:08:52;;;;;;;45.43;20.80;;;;;;;9.52;100.00;149856.97;5013362;28;20044;-62
2023/02/21 07:11:19;;;;;;;45.83;22.27;;;;;;;9.51;100.00;149854.38;5010799;28;20120;-62
2023/02/21 07:13:52;;;;;;;46.97;21.50;;;;;;;9.52;100.00;149856.97;5002513;28;20022;-62
2023/02/21 07:16:18;;;;;;;49.83;19.30;;;;;;;9.55;100.00;149864.72;5008444;28;20030;-62
2023/02/21 07:18:45;;;;;;;48.57;22.67;;;;;;;9.61;100.00;149880.25;5013188;28;20025;-61
2023/02/21 07:21:11;;;;;;;49.27;21.90;;;;;;;9.54;100.00;149862.13;5021795;28;20508;-62
2023/02/21 07:23:36;;;;;;;54.60;24.93;;;;;;;9.60;100.00;149878.97;5013920;28;20034;-62
2023/02/21 07:26:01;;;;;;;47.37;21.50;;;;;;;9.55;100.00;149866.00;5015296;28;20485;-62
2023/02/21 07:28:27;;;;;;;44.30;18.93;;;;;;;9.61;100.00;149880.25;5015291;28;20018;-62
2023/02/21 07:30:52;;;;;;;47.17;21.17;;;;;;;9.62;100.00;149882.84;5014745;28;20029;-62
2023/02/21 07:33:17;;;;;;;41.33;20.87;;;;;;;9.66;100.00;149893.19;5014514;28;20018;-62
2023/02/21 07:35:43;;;;;;;43.57;20.50;;;;;;;9.62;100.00;149882.84;5013742;28;20040;-63
2023/02/21 07:38:08;;;;;;;43.00;21.13;;;;;;;9.67;100.00;149895.78;5013982;28;20105;-62
2023/02/21 07:40:34;;;;;;;42.83;20.90;;;;;;;9.68;100.00;149899.63;5013551;28;20021;-62
2023/02/21 07:42:59;;;;;;;51.63;23.33;;;;;;;9.71;100.00;149904.84;5015101;28;20026;-62
2023/02/21 07:45:24;;;;;;;45.10;20.47;;;;;;;9.72;100.00;149908.72;5014576;28;20055;-62
2023/02/21 07:47:52;;;;;;;47.10;21.67;;;;;;;9.71;100.00;149906.16;5014049;28;20083;-62
2023/02/21 07:50:17;;;;;;;51.93;24.07;;;;;;;9.71;100.00;149904.84;5014055;28;20034;-63
2023/02/21 07:52:44;;;;;;;48.40;23.10;;;;;;;9.74;100.00;149913.91;5014175;28;20032;-62
2023/02/21 07:55:11;;;;;;;48.23;21.97;;;;;;;9.72;100.00;149907.44;5013957;28;20026;-62
2023/02/21 07:57:36;;;;;;;47.17;21.73;;;;;;;9.75;100.00;149915.19;5013358;28;20037;-63
2023/02/21 08:00:03;;;;;;;39.07;20.03;;;;;;;9.69;100.00;149902.28;5014492;28;20041;-63
2023/02/21 08:02:28;;;;;;;54.40;24.83;;;;;;;9.72;100.00;149908.72;5012643;28;20025;-62
2023/02/21 08:04:54;;;;;;;43.93;21.03;;;;;;;9.72;100.00;149908.72;5011587;28;20096;-62
2023/02/21 08:07:19;;;;;;;53.80;23.57;;;;;;;9.78;100.00;149924.25;5013984;28;20032;-62
2023/02/21 08:09:45;;;;;;;56.03;26.13;;;;;;;9.81;100.00;149930.72;5014038;28;20062;-62
2023/02/21 08:12:11;;;;;;;42.73;20.10;;;;;;;9.75;100.00;149916.50;5013070;28;20030;-62
2023/02/21 08:14:36;;;;;;;48.47;24.10;;;;;;;9.74;100.00;149912.63;5011980;28;20048;-63
2023/02/21 08:17:01;;;;;;;52.20;25.73;;;;;;;9.74;100.00;149912.63;5013175;28;20065;-62
2023/02/21 08:19:27;;;;;;;49.50;26.73;;;;;;;9.74;100.00;149913.91;5013615;28;20026;-62
2023/02/21 08:21:52;;;;;;;40.47;20.27;;;;;;;9.68;100.00;149898.34;5013499;28;20430;-62
2023/02/21 08:24:18;;;;;;;48.63;22.10;;;;;;;9.65;100.00;149890.59;5014556;28;20022;-62
2023/02/21 08:26:44;;;;;;;49.10;24.20;;;;;;;9.67;100.00;149895.78;5014673;28;20481;-62
2023/02/21 08:29:12;;;;;;;48.43;23.77;;;;;;;9.71;100.00;149904.84;5013914;28;20084;-63
2023/02/21 08:31:39;;;;;;;50.63;24.63;;;;;;;9.76;100.00;149919.06;5012966;28;20048;-62
2023/02/21 08:34:06;;;;;;;53.70;24.80;;;;;;;9.78;100.00;149924.25;5013882;28;20477;-62
2023/02/21 08:36:37;;;;;;;46.73;21.80;;;;;;;9.80;100.00;149928.13;5014337;28;20382;-62
2023/02/21 08:39:04;;;;;;;48.45;22.95;;;;;;;9.80;100.00;149929.41;5009888;28;20077;-62
2023/02/21 08:41:44;;;;;;;51.20;25.10;;;;;;;9.80;100.00;149929.41;4994422;28;20119;-62
2023/02/21 08:44:12;;;;;;;53.60;27.10;;;;;;;9.77;100.00;149921.66;4994693;28;20027;-62
2023/02/21 08:46:39;;;;;;;51.83;24.77;;;;;;;9.79;100.00;149926.81;5002145;28;20036;-63
2023/02/21 08:49:04;;;;;;;37.23;16.53;;;;;;;9.76;100.00;149917.78;5013436;28;20030;-62
2023/02/21 08:51:31;;;;;;;44.33;20.43;;;;;;;9.77;100.00;149921.66;5013750;28;20587;-62
2023/02/21 08:53:57;;;;;;;49.50;23.50;;;;;;;9.88;100.00;149950.13;5012939;28;20105;-62
2023/02/21 08:56:24;;;;;;;44.67;22.47;;;;;;;9.85;100.00;149942.38;5012396;28;20030;-62
2023/02/21 08:58:50;;;;;;;47.77;20.50;;;;;;;9.83;100.00;149937.22;5012225;28;20386;-62
2023/02/21 09:01:16;;;;;;;52.87;25.07;;;;;;;9.91;100.00;149957.91;5012822;28;20033;-62
2023/02/21 09:03:41;;;;;;;48.77;23.87;;;;;;;9.88;100.00;149950.13;5011653;28;20034;-62
2023/02/21 09:06:08;;;;;;;50.47;25.47;;;;;;;9.88;100.00;149950.13;5013290;28;20541;-63
2023/02/21 09:08:35;;;;;;;55.33;25.47;;;;;;;9.98;100.00;149974.75;5012498;28;20021;-62
2023/02/21 09:11:02;;;;;;;43.07;20.03;;;;;;;9.96;100.00;149970.88;5011642;28;20099;-62
2023/02/21 09:13:28;;;;;;;44.40;20.47;;;;;;;9.97;100.00;149973.47;5012033;28;20022;-62
2023/02/21 09:15:55;;;;;;;47.70;24.57;;;;;;;10.07;100.00;149996.78;5012018;28;20065;-62
2023/02/21 09:18:21;;;;;;;45.07;22.03;;;;;;;10.05;100.00;149991.56;5013714;28;20026;-63
2023/02/21 09:20:51;;;;;;;42.17;20.27;;;;;;;10.05;100.00;149991.56;5011877;28;20036;-63
2023/02/21 09:23:20;;;;;;;45.47;19.87;;;;;;;9.96;100.00;149970.88;5012893;28;20491;-63
2023/02/21 09:25:47;;;;;;;46.43;22.33;;;;;;;10.03;100.00;149986.38;5011356;28;20034;-62
2023/02/21 09:28:13;;;;;;;47.80;23.60;;;;;;;10.12;100.00;150011.00;5010035;28;20473;-63
2023/02/21 09:30:39;;;;;;;40.70;17.93;;;;;;;10.03;100.00;149986.38;5010534;28;20029;-63
2023/02/21 09:33:05;;;;;;;47.13;23.50;;;;;;;10.08;100.00;149999.34;5011459;28;20025;-63
2023/02/21 09:35:30;;;;;;;53.30;24.83;;;;;;;10.20;100.00;150031.72;5012056;28;20062;-62
2023/02/21 09:37:57;;;;;;;50.23;25.03;;;;;;;10.09;100.00;150001.94;5011292;28;20045;-63
2023/02/21 09:40:43;;;;;;;41.37;21.47;;;;;;;10.08;100.00;149999.34;5011096;28;20377;-63
2023/02/21 09:43:36;;;;;;;44.87;21.27;;;;;;;10.17;100.00;150023.91;4993573;28;20032;-63
2023/02/21 09:46:31;;;;;;;38.27;20.03;;;;;;;10.12;100.00;150011.00;5011686;28;20081;-63
2023/02/21 09:48:57;;;;;;;42.03;19.00;;;;;;;10.22;100.00;150035.66;5012948;28;20029;-63
2023/02/21 09:51:24;;;;;;;41.10;22.17;;;;;;;10.33;100.00;150064.16;5012086;28;20045;-62
2023/02/21 09:53:52;;;;;;;39.03;20.43;;;;;;;10.37;100.00;150074.47;5011439;28;20530;-62
2023/02/21 09:56:30;;;;;;;46.57;22.57;;;;;;;10.44;100.00;150092.63;5011687;28;20034;-63
2023/02/21 09:58:57;;;;;;;41.27;20.80;;;;;;;10.47;100.00;150100.41;5011585;28;20065;-63
2023/02/21 10:01:51;;;;;;;42.13;21.03;;;;;;;10.42;100.00;150087.47;5010561;28;20029;-62
2023/02/21 10:04:35;;;;;;;39.33;21.23;;;;;;;10.54;100.00;150118.53;5012121;28;20091;-63
2023/02/21 10:07:25;;;;;;;40.00;20.30;;;;;;;10.53;100.00;150115.91;5013583;28;20044;-62
2023/02/21 10:10:03;;;;;;;37.77;18.63;;;;;;;10.50;100.00;150108.16;5011744;28;20055;-62
2023/02/21 10:12:43;;;;;;;39.40;20.43;;;;;;;10.56;100.00;150123.72;5010713;28;20033;-63
2023/02/21 10:15:37;;;;;;;40.10;19.67;;;;;;;10.69;100.00;150156.09;4995564;28;20033;-62
2023/02/21 10:18:30;;;;;;;37.23;17.63;;;;;;;10.65;100.00;150144.41;5010752;28;20034;-62
2023/02/21 10:21:04;;;;;;;41.00;20.50;;;;;;;10.70;100.00;150157.41;5009778;28;20087;-63
2023/02/21 10:23:48;;;;;;;38.23;17.73;;;;;;;10.39;100.00;150079.66;5001534;28;20504;-62
2023/02/21 10:26:25;;;;;;;32.93;17.10;;;;;;;10.40;100.00;150082.25;5012430;28;20386;-63
2023/02/21 10:28:51;;;;;;;33.83;14.93;;;;;;;10.40;100.00;150082.25;5012083;28;20026;-63
2023/02/21 10:31:25;;;;;;;39.17;19.63;;;;;;;10.43;100.00;150090.06;5010762;28;20401;-63
2023/02/21 10:33:51;;;;;;;43.50;20.93;;;;;;;10.43;100.00;150088.75;5012050;28;20072;-63
2023/02/21 10:36:20;;;;;;;39.90;20.60;;;;;;;10.40;100.00;150082.25;5012264;28;20069;-63
2023/02/21 10:39:09;;;;;;;48.03;22.47;;;;;;;10.28;100.00;150051.16;5011428;28;20096;-63
2023/02/21 10:41:38;;;;;;;42.37;21.87;;;;;;;10.30;100.00;150056.38;5011516;28;20033;-63
2023/02/21 10:44:09;;;;;;;40.70;21.20;;;;;;;10.36;100.00;150070.59;5011858;28;20109;-63
2023/02/21 10:47:14;;;;;;;37.03;18.30;;;;;;;10.28;100.00;150051.16;5011279;28;20034;-62
2023/02/21 10:49:48;;;;;;;45.03;21.93;;;;;;;10.41;100.00;150084.81;4992309;28;20034;-62
2023/02/21 10:52:17;;;;;;;46.17;21.23;;;;;;;10.39;100.00;150079.66;4999317;28;20026;-64
2023/02/21 10:55:14;;;;;;;46.90;22.67;;;;;;;10.35;100.00;150069.31;4992541;28;20053;-63
2023/02/21 10:57:44;;;;;;;37.40;15.33;;;;;;;10.17;100.00;150023.91;4995687;28;20403;-63
2023/02/21 11:00:23;;;;;;;49.03;23.53;;;;;;;10.25;100.00;150044.69;5011094;28;20493;-62
2023/02/21 11:02:54;;;;;;;49.87;23.10;;;;;;;10.24;100.00;150040.81;5010114;28;20383;-63
2023/02/21 11:05:22;;;;;;;47.03;23.03;;;;;;;10.26;100.00;150046.00;5010875;28;20464;-62
2023/02/21 11:08:08;;;;;;;42.97;20.10;;;;;;;10.17;100.00;150023.91;5012070;28;20408;-62
2023/02/21 11:10:41;;;;;;;45.00;22.10;;;;;;;10.28;100.00;150051.16;5010305;28;20029;-62
2023/02/21 11:13:22;;;;;;;49.50;23.17;;;;;;;10.35;100.00;150068.03;5011090;28;20030;-63
2023/02/21 11:15:52;;;;;;;39.75;19.05;;;;;;;10.30;100.00;150056.38;5010751;28;20118;-62
2023/02/21 11:18:23;;;;;;;51.87;25.43;;;;;;;10.39;100.00;150079.66;5011067;28;20469;-62
2023/02/21 11:20:48;;;;;;;49.85;22.73;;;;;;;10.34;100.00;150066.72;5010499;28;20022;-63
2023/02/21 11:23:20;;;;;;;48.40;24.87;;;;;;;10.49;100.00;150104.28;5010688;28;20029;-62
2023/02/21 11:25:47;;;;;;;55.03;25.10;;;;;;;10.58;100.00;150127.59;5011278;28;20039;-63
2023/02/21 11:28:12;;;;;;;55.20;25.83;;;;;;;10.54;100.00;150118.53;5010879;28;20022;-62
2023/02/21 11:30:42;;;;;;;54.13;25.07;;;;;;;10.67;100.00;150149.63;5009510;28;20461;-64
2023/02/21 11:33:08;;;;;;;47.37;22.07;;;;;;;10.45;100.00;150095.22;5001615;28;20050;-62
2023/02/21 11:35:38;;;;;;;57.17;23.37;;;;;;;10.34;100.00;150066.72;5010746;28;20018;-63
2023/02/21 11:38:28;;;;;;;47.47;25.23;;;;;;;10.52;100.00;150113.31;5007029;28;20026;-65
2023/02/21 11:40:53;;;;;;;48.63;24.63;;;;;;;10.39;100.00;150078.38;5003530;28;20022;-63
2023/02/21 11:43:26;;;;;;;50.73;25.57;;;;;;;10.41;100.00;150083.53;5011676;28;20041;-62
2023/02/21 11:45:51;;;;;;;55.10;24.20;;;;;;;10.52;100.00;150113.31;5009937;28;20033;-62
2023/02/21 11:48:26;;;;;;;45.27;21.53;;;;;;;10.39;100.00;150078.38;5010471;28;20072;-63
2023/02/21 11:50:52;;;;;;;51.20;24.27;;;;;;;10.45;100.00;150095.22;5010615;28;20017;-63
2023/02/21 11:53:23;;;;;;;53.03;24.70;;;;;;;10.53;100.00;150114.63;5010515;28;20033;-63
2023/02/21 11:56:01;;;;;;;45.53;19.50;;;;;;;10.54;100.00;150118.53;5014194;28;20018;-62
2023/02/21 11:58:53;;;;;;;49.90;23.90;;;;;;;10.47;100.00;150100.41;5014305;28;20038;-62
2023/02/21 12:01:27;;;;;;;42.03;20.55;;;;;;;10.42;100.00;150086.16;5012933;28;20022;-62
2023/02/21 12:03:53;;;;;;;49.47;24.27;;;;;;;10.64;100.00;150143.13;5012675;28;20474;-63
2023/02/21 12:06:30;;;;;;;51.37;24.13;;;;;;;10.67;100.00;150149.63;5013908;28;20052;-62
2023/02/21 12:09:08;;;;;;;48.03;23.60;;;;;;;10.66;100.00;150147.00;5014584;28;20095;-62
2023/02/21 12:11:50;;;;;;;49.30;24.43;;;;;;;10.72;100.00;150162.56;5014792;28;20394;-62
2023/02/21 12:15:06;;;;;;;49.10;22.37;;;;;;;10.61;100.00;150134.06;5013739;28;20030;-62
2023/02/21 12:17:59;;;;;;;53.23;25.93;;;;;;;10.66;100.00;150147.00;5011469;28;20052;-62
2023/02/21 12:20:43;;;;;;;51.13;24.57;;;;;;;10.68;100.00;150152.22;5011915;28;20104;-63
2023/02/21 12:23:23;;;;;;;46.53;22.43;;;;;;;10.34;100.00;150066.72;5012575;28;20042;-63
2023/02/21 12:26:04;;;;;;;53.17;24.40;;;;;;;10.38;100.00;150077.06;5014900;28;20041;-62
2023/02/21 12:29:00;;;;;;;54.73;23.50;;;;;;;10.26;100.00;150046.00;5011908;28;20535;-62
2023/02/21 12:31:50;;;;;;;47.23;22.33;;;;;;;10.16;100.00;150020.03;4998570;28;20045;-63
2023/02/21 12:34:53;;;;;;;58.13;25.80;;;;;;;10.23;100.00;150038.25;5011935;28;20038;-63
2023/02/21 12:37:33;;;;;;;50.17;23.17;;;;;;;10.18;100.00;150025.25;5012045;28;20038;-62
2023/02/21 12:40:18;;;;;;;51.80;25.20;;;;;;;10.30;100.00;150056.38;5011699;28;20037;-62
2023/02/21 12:43:11;;;;;;;58.20;26.43;;;;;;;10.49;100.00;150104.28;5011744;28;20037;-62
2023/02/21 12:46:11;;;;;;;60.10;27.43;;;;;;;10.66;100.00;150147.00;5011561;28;20034;-63
2023/02/21 12:48:44;;;;;;;44.30;21.03;;;;;;;10.65;100.00;150144.41;5010960;28;20391;-63
2023/02/21 12:51:15;;;;;;;45.50;20.87;;;;;;;10.54;100.00;150118.53;5011609;28;20056;-63
2023/02/21 12:53:55;;;;;;;49.37;22.77;;;;;;;10.55;100.00;150119.84;5013067;28;20587;-63
2023/02/21 12:56:27;;;;;;;47.10;21.77;;;;;;;10.54;100.00;150118.53;5013297;28;20371;-62
2023/02/21 12:59:05;;;;;;;48.83;22.67;;;;;;;10.52;100.00;150113.31;5014037;28;20793;-63
2023/02/21 13:01:40;;;;;;;56.57;27.23;;;;;;;10.80;100.00;150183.31;5011761;28;20062;-63
2023/02/21 13:04:29;;;;;;;44.77;22.20;;;;;;;10.71;100.00;150161.28;5013159;28;20624;-63
2023/02/21 13:07:10;;;;;;;44.77;22.00;;;;;;;10.65;100.00;150145.69;5010680;28;20029;-64
2023/02/21 13:09:41;;;;;;;52.70;23.53;;;;;;;10.83;100.00;150191.06;5013168;28;20513;-63
2023/02/21 13:12:18;;;;;;;45.38;21.45;;;;;;;10.75;100.00;150170.31;5010763;28;20466;-63
2023/02/21 13:14:54;;;;;;;43.93;21.80;;;;;;;10.83;100.00;150191.06;5012767;28;20057;-63
2023/02/21 13:17:19;;;;;;;44.47;22.50;;;;;;;11.21;100.00;150288.25;5011210;28;20057;-63
2023/02/21 13:19:54;;;;;;;46.37;22.30;;;;;;;11.09;100.00;150258.44;5013428;28;20025;-64
2023/02/21 13:26:10;;;;;;;43.03;21.27;;;;;;;10.88;100.00;150204.00;5012543;28;20064;-63
2023/02/21 13:28:37;;;;;;;45.33;21.20;;;;;;;10.83;100.00;150191.06;5010616;28;20052;-63
2023/02/21 13:31:05;;;;;;;38.00;17.97;;;;;;;10.55;100.00;150121.13;5011840;28;20025;-63
2023/02/21 13:33:44;;;;;;;42.00;19.40;;;;;;;10.59;100.00;150128.88;5011279;28;20026;-63
2023/02/21 13:36:21;;;;;;;40.27;19.30;;;;;;;10.54;100.00;150117.25;5010361;28;20120;-63
2023/02/21 13:39:00;;;;;;;40.13;17.97;;;;;;;10.43;100.00;150088.75;4993301;28;20030;-63
2023/02/21 13:41:28;;;;;;;36.93;18.70;;;;;;;10.41;100.00;150083.53;5001570;28;20454;-63
2023/02/21 13:43:55;;;;;;;39.50;19.67;;;;;;;10.44;100.00;150091.34;5011898;28;20021;-63
2023/02/21 13:46:45;;;;;;;37.23;18.40;;;;;;;10.29;100.00;150053.75;5011896;28;20029;-62